Time;durP1;ratioP1;P1;durP2;ratioP2;P2;SDS_P1;SDS_P2;PMS_P1;PMS_P2;Temp;Humidity;BMP_temperature;BMP_pressure;BME280_temperature;BME280_humidity;BME280_pressure;Samples;Min_cycle;Max_cycle;Signal;HPM_P1;HPM_P2
2023/04/29 00:01:05;;;;;;;;;12.25;10.50;;;;;17.15;85.46;99021.22;5071590;28;45515;-62
2023/04/29 00:03:33;;;;;;;;;12.00;10.00;;;;;17.11;87.05;99017.91;5071515;28;45522;-62
2023/04/29 00:05:59;;;;;;;;;13.50;10.75;;;;;17.09;86.83;99020.66;5072562;28;45436;-62
2023/04/29 00:08:25;;;;;;;;;8.75;8.75;;;;;17.08;88.23;99020.81;5072173;27;45497;-62
2023/04/29 00:10:51;;;;;;;;;10.00;8.00;;;;;17.05;87.48;99007.69;5066462;28;45453;-62
2023/04/29 00:13:16;;;;;;;;;7.00;7.00;;;;;17.01;86.88;99004.38;5072691;27;45505;-62
2023/04/29 00:15:42;;;;;;;;;9.25;8.25;;;;;16.99;86.69;99005.44;5072808;28;45512;-62
2023/04/29 00:18:08;;;;;;;;;10.25;9.25;;;;;16.97;87.30;99025.97;5073592;27;45515;-62
2023/04/29 00:20:34;;;;;;;;;9.00;7.40;;;;;16.93;85.96;99037.78;5073277;28;45470;-62
2023/04/29 00:22:59;;;;;;;;;9.00;9.00;;;;;16.90;87.41;99036.22;5072369;27;45419;-62
2023/04/29 00:25:25;;;;;;;;;9.25;9.00;;;;;16.88;87.77;99030.13;5072809;28;45772;-63
2023/04/29 00:27:51;;;;;;;;;9.00;9.00;;;;;16.87;86.34;99016.94;5073231;28;46257;-62
2023/04/29 00:30:16;;;;;;;;;8.75;7.75;;;;;16.84;87.33;99015.31;5072992;27;45331;-62
2023/04/29 00:32:43;;;;;;;;;10.75;9.25;;;;;16.80;88.22;99010.28;5073063;28;45877;-62
2023/04/29 00:35:09;;;;;;;;;7.75;7.25;;;;;16.77;86.86;99005.16;5073010;27;45658;-63
2023/04/29 00:37:34;;;;;;;;;9.50;7.75;;;;;16.76;85.45;99001.66;5073217;28;46463;-62
2023/04/29 00:39:59;;;;;;;;;7.50;6.50;;;;;16.77;85.16;98991.84;5072856;27;45468;-62
2023/04/29 00:42:26;;;;;;;;;4.00;4.00;;;;;16.80;83.86;99000.50;5072559;28;45723;-62
2023/04/29 00:44:52;;;;;;;;;5.80;5.80;;;;;16.86;82.58;98983.25;5069419;27;45447;-62
2023/04/29 00:47:17;;;;;;;;;3.00;2.75;;;;;16.92;81.10;98997.03;5073163;28;47513;-63
2023/04/29 00:49:43;;;;;;;;;4.75;4.75;;;;;16.99;80.51;98995.63;5077350;27;45489;-63
2023/04/29 00:52:10;;;;;;;;;7.00;5.00;;;;;17.07;79.89;98995.13;5076717;27;45938;-63
2023/04/29 00:54:37;;;;;;;;;7.00;5.00;;;;;17.13;79.75;98992.03;5073395;27;45534;-62
2023/04/29 00:57:05;;;;;;;;;3.40;3.40;;;;;17.20;80.05;99003.13;5076100;28;46210;-63
2023/04/29 00:59:32;;;;;;;;;4.00;4.00;;;;;17.27;79.29;99007.91;5076016;27;45384;-62
2023/04/29 01:02:01;;;;;;;;;5.80;5.20;;;;;17.31;78.87;99001.41;5068569;28;45520;-63
2023/04/29 01:04:27;;;;;;;;;1.00;0.00;;;;;17.36;78.26;98995.75;5075308;28;46328;-63
2023/04/29 01:07:11;;;;;;;;;3.00;3.00;;;;;17.40;79.43;98992.78;5074888;28;46450;-63
2023/04/29 01:09:54;;;;;;;;;7.60;7.00;;;;;17.44;80.26;98988.91;5073021;28;45417;-63
2023/04/29 01:12:37;;;;;;;;;11.50;6.25;;;;;17.52;81.82;98992.88;5074725;28;45498;-63
2023/04/29 01:15:05;;;;;;;;;7.75;7.00;;;;;17.57;81.61;98991.59;5076251;28;45389;-63
2023/04/29 01:17:38;;;;;;;;;10.50;8.25;;;;;17.63;81.45;98999.13;5076110;28;46397;-63
2023/04/29 01:20:05;;;;;;;;;4.00;2.80;;;;;17.68;82.20;98994.38;5076142;28;45452;-63
2023/04/29 01:22:31;;;;;;;;;10.25;10.25;;;;;17.73;80.84;98994.91;5076451;28;45517;-63
2023/04/29 01:24:56;;;;;;;;;9.75;9.00;;;;;17.77;81.62;98995.53;5075241;28;45539;-63
2023/04/29 01:27:59;;;;;;;;;8.00;8.00;;;;;17.81;81.63;98988.16;5076106;28;45338;-63
2023/04/29 01:30:34;;;;;;;;;9.00;8.00;;;;;17.85;81.95;98985.16;5071673;28;45693;-63
2023/04/29 01:33:25;;;;;;;;;8.00;7.00;;;;;17.88;82.24;98971.63;5075924;28;45444;-63
2023/04/29 01:35:57;;;;;;;;;8.50;8.50;;;;;17.91;81.81;98967.88;5075404;28;45315;-63
2023/04/29 01:38:28;;;;;;;;;9.75;9.75;;;;;17.92;81.50;98964.25;5074830;28;46515;-63
2023/04/29 01:41:02;;;;;;;;;9.00;8.80;;;;;17.95;81.84;98964.00;5073582;28;45559;-63
2023/04/29 01:43:31;;;;;;;;;12.75;10.75;;;;;17.98;81.87;98961.13;5075936;28;45514;-63
2023/04/29 01:45:59;;;;;;;;;10.50;9.25;;;;;17.99;81.75;98965.50;5075701;28;45489;-63
2023/04/29 01:48:25;;;;;;;;;10.25;8.50;;;;;18.03;81.95;98967.84;5068760;28;46560;-63
2023/04/29 01:50:51;;;;;;;;;10.00;10.00;;;;;18.06;81.56;98964.94;5075324;28;45526;-63
2023/04/29 01:53:16;;;;;;;;;10.50;10.00;;;;;18.09;81.53;98967.41;5066995;28;45323;-63
2023/04/29 01:55:42;;;;;;;;;13.25;11.25;;;;;18.11;81.76;98960.09;5075344;28;45569;-63
2023/04/29 01:58:09;;;;;;;;;11.50;11.50;;;;;18.12;81.35;98964.47;5074952;28;46564;-63
2023/04/29 02:00:36;;;;;;;;;12.40;9.80;;;;;18.12;81.18;98959.16;5075007;28;45637;-63
2023/04/29 02:03:02;;;;;;;;;7.75;7.00;;;;;18.11;80.74;98960.09;5076311;28;45383;-63
2023/04/29 02:05:31;;;;;;;;;8.00;8.00;;;;;18.12;80.45;98955.63;5048577;28;46387;-63
2023/04/29 02:07:56;;;;;;;;;9.00;9.00;;;;;18.11;80.03;98956.59;5055692;28;45542;-63
2023/04/29 02:10:21;;;;;;;;;7.00;7.00;;;;;18.09;80.10;98958.53;5055347;28;45450;-63
2023/04/29 02:12:47;;;;;;;;;7.25;7.00;;;;;18.08;80.10;98951.50;5055474;28;45452;-63
2023/04/29 02:15:12;;;;;;;;;8.00;8.00;;;;;18.07;80.11;98957.81;5054992;28;45367;-63
2023/04/29 02:17:38;;;;;;;;;9.50;7.50;;;;;18.05;80.15;98947.25;5054715;28;45512;-63
2023/04/29 02:20:03;;;;;;;;;8.50;7.75;;;;;18.05;80.43;98955.25;5055116;28;45383;-63
2023/04/29 02:22:29;;;;;;;;;7.50;7.50;;;;;18.06;80.24;98950.75;5055314;28;45510;-63
2023/04/29 02:24:55;;;;;;;;;8.00;8.00;;;;;18.05;80.34;98928.56;5054480;28;45458;-63
2023/04/29 02:27:20;;;;;;;;;8.50;8.50;;;;;18.07;80.62;98920.44;5054738;28;45464;-63
2023/04/29 02:29:45;;;;;;;;;11.25;9.00;;;;;18.07;80.19;98928.47;5054547;28;45449;-63
2023/04/29 02:32:14;;;;;;;;;9.50;8.25;;;;;18.07;80.28;98944.47;5054186;28;45499;-63
2023/04/29 02:34:39;;;;;;;;;9.00;9.00;;;;;18.06;80.15;98956.09;5053133;28;45370;-63
2023/04/29 02:37:05;;;;;;;;;8.00;8.00;;;;;18.06;79.99;98956.94;5054440;28;46518;-62
2023/04/29 02:39:30;;;;;;;;;10.00;9.00;;;;;18.06;79.83;98942.75;5055133;28;45416;-63
2023/04/29 02:41:55;;;;;;;;;12.25;8.00;;;;;18.06;80.09;98934.75;5053520;28;45701;-64
2023/04/29 02:44:21;;;;;;;;;10.00;9.25;;;;;18.06;80.67;98934.75;5054714;28;45366;-64
2023/04/29 02:46:46;;;;;;;;;8.50;8.50;;;;;18.06;80.29;98924.09;5053913;28;46479;-64
2023/04/29 02:49:13;;;;;;;;;9.00;8.50;;;;;18.05;81.09;98923.22;5054412;28;45448;-63
2023/04/29 02:51:38;;;;;;;;;8.80;8.20;;;;;18.06;81.25;98921.41;5052600;28;45419;-64
2023/04/29 02:54:04;;;;;;;;;11.25;11.25;;;;;18.05;81.30;98935.72;5054641;28;45534;-64
2023/04/29 02:56:29;;;;;;;;;9.25;9.25;;;;;18.05;80.88;98946.38;5054285;28;45457;-64
2023/04/29 02:58:55;;;;;;;;;11.50;8.75;;;;;18.03;80.60;98967.84;5054092;28;45503;-64
2023/04/29 03:01:21;;;;;;;;;6.25;6.25;;;;;17.89;80.62;99004.47;5053970;28;45598;-64
2023/04/29 03:03:47;;;;;;;;;7.00;6.20;;;;;17.67;83.00;99043.34;5054262;28;45427;-63
2023/04/29 03:06:13;;;;;;;;;5.20;5.20;;;;;17.39;84.89;99099.50;5068213;28;45736;-64
2023/04/29 03:08:38;;;;;;;;;5.50;5.00;;;;;17.10;85.87;99114.75;5074507;27;45544;-63
2023/04/29 03:11:04;;;;;;;;;3.00;2.00;;;;;16.81;85.65;99099.88;5074373;27;45450;-62
2023/04/29 03:13:30;;;;;;;;;7.75;6.75;;;;;16.58;88.06;99118.19;5074826;27;45309;-62
2023/04/29 03:15:57;;;;;;;;;7.75;6.75;;;;;16.49;87.95;99109.91;5073742;27;46801;-61
2023/04/29 03:18:22;;;;;;;;;4.60;4.60;;;;;16.24;88.15;99105.31;5074885;27;45632;-62
2023/04/29 03:20:48;;;;;;;;;6.25;5.75;;;;;16.15;89.92;99055.34;5069639;28;45543;-62
2023/04/29 03:23:13;;;;;;;;;5.50;5.50;;;;;16.03;91.26;99049.00;5074226;28;45439;-62
2023/04/29 03:25:39;;;;;;;;;6.00;6.00;;;;;15.96;91.53;99050.34;5074127;27;45457;-62
2023/04/29 03:28:05;;;;;;;;;4.50;3.50;;;;;15.96;88.87;99053.00;5074032;27;45580;-62
2023/04/29 03:30:31;;;;;;;;;1.80;1.80;;;;;16.04;88.93;99042.75;5073950;27;45484;-62
2023/04/29 03:32:56;;;;;;;;;4.00;4.00;;;;;16.10;91.44;99044.16;5074339;27;45458;-62
2023/04/29 03:35:21;;;;;;;;;4.25;4.00;;;;;16.11;92.99;99051.16;5074148;27;45870;-62
2023/04/29 03:37:47;;;;;;;;;5.25;4.25;;;;;16.11;92.56;99046.72;5074131;27;45806;-62
2023/04/29 03:40:13;;;;;;;;;4.25;3.75;;;;;16.09;92.83;99018.53;5074487;27;45433;-62
2023/04/29 03:42:38;;;;;;;;;5.50;5.00;;;;;16.07;94.33;99033.72;5073969;27;45554;-62
2023/04/29 03:45:04;;;;;;;;;5.25;4.25;;;;;16.03;92.97;99072.94;5073616;27;46499;-62
2023/04/29 03:47:29;;;;;;;;;6.00;5.75;;;;;15.95;94.52;99100.00;5073102;27;45366;-62
2023/04/29 03:49:55;;;;;;;;;4.75;4.75;;;;;15.83;93.28;99118.53;5073795;27;45627;-62
2023/04/29 03:52:20;;;;;;;;;6.00;4.00;;;;;15.68;94.37;99102.59;5073681;27;45431;-62
2023/04/29 03:54:45;;;;;;;;;4.25;3.00;;;;;15.57;94.14;99099.72;5073978;27;45325;-62
2023/04/29 03:57:11;;;;;;;;;3.25;3.25;;;;;15.42;94.65;99103.25;5073207;27;45543;-62
2023/04/29 03:59:36;;;;;;;;;6.00;4.00;;;;;15.37;95.48;99097.38;5066909;27;45277;-61
2023/04/29 04:02:02;;;;;;;;;3.50;3.50;;;;;15.36;96.37;99085.91;5072876;27;45422;-62
2023/04/29 04:04:27;;;;;;;;;3.00;3.00;;;;;15.38;97.91;99059.25;5074108;27;45456;-62
2023/04/29 04:06:52;;;;;;;;;5.75;3.50;;;;;15.43;97.76;99051.84;5070323;27;45391;-62
2023/04/29 04:09:18;;;;;;;;;5.75;5.75;;;;;15.42;97.08;99055.44;5073599;27;45541;-62
2023/04/29 04:11:44;;;;;;;;;3.00;3.00;;;;;15.39;96.24;99058.31;5073267;27;45518;-62
2023/04/29 04:14:09;;;;;;;;;0.00;0.00;;;;;15.35;96.79;99054.13;5074155;27;45564;-62
2023/04/29 04:16:35;;;;;;;;;4.00;4.00;;;;;15.32;97.53;99055.16;5072814;28;45475;-62
2023/04/29 04:19:01;;;;;;;;;4.75;4.75;;;;;15.34;98.63;99063.88;5073849;27;45464;-62
2023/04/29 04:21:26;;;;;;;;;4.75;4.00;;;;;15.39;98.52;99060.09;5071896;27;45410;-61
2023/04/29 04:23:52;;;;;;;;;4.50;4.50;;;;;15.42;97.92;99059.88;5073293;27;46098;-62
2023/04/29 04:26:19;;;;;;;;;5.00;5.00;;;;;15.44;97.97;99063.31;5072920;28;45364;-62
2023/04/29 04:28:45;;;;;;;;;6.00;5.00;;;;;15.42;97.82;99067.84;5067805;28;45372;-62
2023/04/29 04:31:10;;;;;;;;;5.75;4.50;;;;;15.34;97.81;99074.50;5072425;27;45306;-62
2023/04/29 04:33:36;;;;;;;;;4.00;3.00;;;;;15.31;97.77;99073.84;5071981;28;47418;-62
2023/04/29 04:36:01;;;;;;;;;5.75;5.00;;;;;15.26;98.52;99076.75;5072940;27;45415;-62
2023/04/29 04:38:27;;;;;;;;;5.00;5.00;;;;;15.27;98.96;99070.50;5073790;27;45360;-62
2023/04/29 04:40:52;;;;;;;;;4.00;4.00;;;;;15.26;98.63;99068.78;5072436;28;45542;-61
2023/04/29 04:43:17;;;;;;;;;4.50;4.50;;;;;15.29;99.87;99073.06;5072092;28;48081;-61
2023/04/29 04:45:43;;;;;;;;;6.50;5.75;;;;;15.31;100.00;99069.38;5072275;27;45471;-61
2023/04/29 04:48:08;;;;;;;;;8.00;7.00;;;;;15.37;100.00;99065.50;5073518;27;45442;-61
2023/04/29 04:50:33;;;;;;;;;7.25;6.25;;;;;15.40;99.61;99060.00;5072909;27;45471;-61
2023/04/29 04:52:59;;;;;;;;;4.00;4.00;;;;;15.42;100.00;99062.53;5073077;27;46443;-61
2023/04/29 04:55:25;;;;;;;;;6.25;5.00;;;;;15.45;100.00;99051.75;5072993;27;45407;-61
2023/04/29 04:57:50;;;;;;;;;5.75;5.75;;;;;15.49;100.00;99050.63;5073070;27;45411;-61
2023/04/29 05:00:16;;;;;;;;;8.00;6.00;;;;;15.53;100.00;99055.66;5070910;28;45416;-61
2023/04/29 05:02:41;;;;;;;;;6.75;6.25;;;;;15.59;100.00;99046.47;5072690;28;45585;-61
2023/04/29 05:05:07;;;;;;;;;7.00;5.00;;;;;15.63;100.00;99040.00;5072611;27;45585;-61
2023/04/29 05:07:36;;;;;;;;;7.00;7.00;;;;;15.68;100.00;99037.94;5071639;28;45702;-61
2023/04/29 05:10:02;;;;;;;;;8.25;7.00;;;;;15.70;100.00;99033.38;5072414;27;45613;-61
2023/04/29 05:12:29;;;;;;;;;6.25;6.00;;;;;15.73;100.00;99030.53;5072743;28;45435;-61
2023/04/29 05:14:56;;;;;;;;;6.40;6.40;;;;;15.77;100.00;99034.69;5073028;28;45395;-61
2023/04/29 05:17:21;;;;;;;;;6.75;6.00;;;;;15.82;100.00;99035.25;5072673;27;45355;-61
2023/04/29 05:19:46;;;;;;;;;6.75;6.00;;;;;15.88;100.00;99037.56;5073002;27;45655;-61
2023/04/29 05:22:12;;;;;;;;;6.75;6.25;;;;;15.92;100.00;99027.59;5072360;27;45499;-61
2023/04/29 05:24:37;;;;;;;;;7.00;7.00;;;;;15.97;100.00;99023.66;5070456;27;45453;-61
2023/04/29 05:27:03;;;;;;;;;7.25;6.00;;;;;16.00;100.00;99025.28;5070922;27;45617;-61
2023/04/29 05:29:29;;;;;;;;;8.75;6.75;;;;;16.02;100.00;99031.34;5071937;28;45458;-61
2023/04/29 05:31:54;;;;;;;;;7.25;6.00;;;;;16.07;100.00;99039.03;5071814;28;45456;-61
2023/04/29 05:34:20;;;;;;;;;7.50;5.25;;;;;16.09;100.00;99042.47;5076310;27;45336;-61
2023/04/29 05:36:45;;;;;;;;;7.75;7.50;;;;;16.13;100.00;99035.97;5075617;27;45657;-61
2023/04/29 05:39:11;;;;;;;;;8.75;6.00;;;;;16.17;100.00;99038.34;5076608;28;45389;-61
2023/04/29 05:41:36;;;;;;;;;7.00;6.00;;;;;16.21;100.00;99029.22;5075363;27;46125;-61
2023/04/29 05:44:01;;;;;;;;;6.50;6.50;;;;;16.23;100.00;99032.66;5075867;27;45340;-61
2023/04/29 05:46:27;;;;;;;;;7.25;6.00;;;;;16.29;100.00;99045.53;5075375;27;45431;-61
2023/04/29 05:48:52;;;;;;;;;7.50;7.50;;;;;16.33;100.00;99044.38;5076164;28;45433;-61
2023/04/29 05:51:18;;;;;;;;;8.25;7.50;;;;;16.35;100.00;99042.47;5074214;27;45463;-61
2023/04/29 05:53:43;;;;;;;;;7.75;6.75;;;;;16.38;100.00;99050.28;5067146;27;45498;-61
2023/04/29 05:56:09;;;;;;;;;9.00;7.50;;;;;16.42;100.00;99047.41;5074338;28;45762;-61
2023/04/29 05:58:34;;;;;;;;;8.00;7.00;;;;;16.42;100.00;99049.09;5075111;27;45414;-61
2023/04/29 06:01:00;;;;;;;;;5.25;5.25;;;;;16.45;100.00;99045.38;5074064;27;45565;-61
2023/04/29 06:03:26;;;;;;;;;5.75;5.75;;;;;16.47;100.00;99045.28;5075147;27;45451;-61
2023/04/29 06:05:52;;;;;;;;;5.00;5.00;;;;;16.51;100.00;99045.00;5074690;27;45558;-61
2023/04/29 06:08:17;;;;;;;;;6.00;6.00;;;;;16.54;100.00;99033.31;5075356;27;45411;-61
2023/04/29 06:10:42;;;;;;;;;10.50;8.75;;;;;16.58;100.00;99042.81;5074165;28;45535;-61
2023/04/29 06:13:08;;;;;;;;;6.25;5.50;;;;;16.63;100.00;99054.88;5075153;27;45404;-61
2023/04/29 06:15:34;;;;;;;;;6.25;5.75;;;;;16.67;100.00;99048.38;5073835;27;45463;-61
2023/04/29 06:17:59;;;;;;;;;10.75;10.00;;;;;16.72;100.00;99053.41;5074331;27;45563;-61
2023/04/29 06:20:25;;;;;;;;;11.00;10.50;;;;;16.77;100.00;99059.28;5073970;27;45958;-61
2023/04/29 06:22:50;;;;;;;;;11.50;9.50;;;;;16.83;100.00;99053.53;5075445;27;45492;-61
2023/04/29 06:25:16;;;;;;;;;11.75;10.00;;;;;16.89;100.00;99058.47;5074964;27;45495;-61
2023/04/29 06:27:41;;;;;;;;;14.25;13.75;;;;;16.93;100.00;99054.63;5075050;28;45250;-63
2023/04/29 06:30:07;;;;;;;;;13.50;10.25;;;;;16.97;100.00;99055.28;5073151;28;46984;-61
2023/04/29 06:32:33;;;;;;;;;15.75;15.50;;;;;17.00;100.00;99052.41;5074718;28;45538;-62
2023/04/29 06:34:58;;;;;;;;;9.50;9.50;;;;;17.03;100.00;99052.22;5075061;27;45531;-62
2023/04/29 06:37:23;;;;;;;;;10.50;8.25;;;;;17.06;99.65;99055.53;5070264;28;45422;-62
2023/04/29 06:39:49;;;;;;;;;9.25;9.25;;;;;17.10;99.48;99054.34;5075147;28;46322;-62
2023/04/29 06:42:14;;;;;;;;;12.50;12.25;;;;;17.14;99.39;99052.34;5074508;27;45454;-62
2023/04/29 06:44:39;;;;;;;;;15.25;13.00;;;;;17.15;98.70;99046.06;5064477;27;46032;-62
2023/04/29 06:47:05;;;;;;;;;13.75;13.75;;;;;17.18;98.93;99050.31;5066806;28;45514;-62
2023/04/29 06:49:30;;;;;;;;;13.50;13.50;;;;;17.22;100.00;99041.16;5074592;27;45624;-61
2023/04/29 06:51:56;;;;;;;;;12.75;11.50;;;;;17.26;98.12;99050.66;5073721;27;45486;-62
2023/04/29 06:54:21;;;;;;;;;13.50;10.75;;;;;17.26;96.43;99046.16;5072192;28;46000;-62
2023/04/29 06:56:47;;;;;;;;;11.25;10.50;;;;;17.21;97.43;99053.63;5073394;27;45522;-62
2023/04/29 06:59:14;;;;;;;;;10.50;10.50;;;;;17.19;96.47;99058.22;5074465;28;45526;-62
2023/04/29 07:01:39;;;;;;;;;12.40;11.80;;;;;17.10;96.65;99053.50;5071590;28;45370;-62
2023/04/29 07:04:05;;;;;;;;;12.50;11.75;;;;;17.08;97.56;99058.94;5074297;27;45363;-62
2023/04/29 07:06:30;;;;;;;;;10.75;7.00;;;;;17.08;97.59;99071.41;5073681;27;45355;-62
2023/04/29 07:08:56;;;;;;;;;8.00;8.00;;;;;17.03;97.10;99069.06;5074022;27;45384;-62
2023/04/29 07:11:23;;;;;;;;;8.50;7.00;;;;;16.96;97.68;99065.06;5073408;27;45431;-61
2023/04/29 07:13:50;;;;;;;;;6.75;6.75;;;;;16.97;96.98;99072.13;5074214;28;45442;-62
2023/04/29 07:16:17;;;;;;;;;7.50;7.00;;;;;16.97;97.07;99069.44;5072964;28;45598;-61
2023/04/29 07:18:43;;;;;;;;;6.75;6.75;;;;;16.96;98.05;99067.75;5072645;27;45562;-62
2023/04/29 07:21:08;;;;;;;;;7.00;6.50;;;;;16.97;96.73;99066.78;5072902;28;45407;-62
2023/04/29 07:23:33;;;;;;;;;7.75;7.00;;;;;16.99;96.27;99067.53;5074077;27;45365;-62
2023/04/29 07:26:11;;;;;;;;;10.00;10.00;;;;;17.01;97.90;99070.97;5073294;27;45485;-61
2023/04/29 07:28:37;;;;;;;;;8.60;7.40;;;;;17.08;98.84;99061.63;5073160;27;45569;-62
2023/04/29 07:31:03;;;;;;;;;9.75;7.75;;;;;17.16;97.45;99073.53;5072759;28;45499;-62
2023/04/29 07:33:28;;;;;;;;;10.00;9.00;;;;;17.20;97.60;99064.41;5071878;28;45435;-61
2023/04/29 07:35:53;;;;;;;;;6.75;6.00;;;;;17.23;95.63;99058.88;5071513;27;45588;-62
2023/04/29 07:38:20;;;;;;;;;5.00;5.00;;;;;17.18;95.07;99053.84;5072577;27;46556;-61
2023/04/29 07:40:45;;;;;;;;;6.40;6.00;;;;;17.13;95.60;99052.44;5073112;27;45504;-62
2023/04/29 07:43:11;;;;;;;;;8.25;8.00;;;;;17.12;95.81;99050.72;5074093;28;46046;-62
2023/04/29 07:45:38;;;;;;;;;7.75;6.50;;;;;17.13;95.84;99052.44;5072263;28;45462;-62
2023/04/29 07:48:04;;;;;;;;;9.40;7.00;;;;;17.18;96.55;99045.84;5073275;28;45416;-62
2023/04/29 07:50:30;;;;;;;;;11.00;7.75;;;;;17.26;95.76;99048.00;5068529;27;45497;-62
2023/04/29 07:52:56;;;;;;;;;10.25;8.50;;;;;17.31;95.06;99053.84;5073905;27;45422;-62
2023/04/29 07:55:22;;;;;;;;;11.00;8.50;;;;;17.34;94.83;99045.66;5071845;27;45352;-62
2023/04/29 07:57:47;;;;;;;;;7.75;7.00;;;;;17.37;95.49;99040.09;5073356;27;45421;-62
2023/04/29 08:00:13;;;;;;;;;9.50;8.00;;;;;17.41;95.39;99041.59;5072868;27;45396;-62
2023/04/29 08:02:38;;;;;;;;;8.50;7.50;;;;;17.47;95.19;99045.66;5073731;27;45373;-63
2023/04/29 08:05:04;;;;;;;;;8.00;8.00;;;;;17.50;94.82;99048.97;5071714;28;45461;-63
2023/04/29 08:07:30;;;;;;;;;10.25;9.75;;;;;17.54;95.06;99037.13;5073395;27;46456;-63
2023/04/29 08:09:55;;;;;;;;;9.60;9.20;;;;;17.60;94.56;99036.69;5073519;27;45447;-63
2023/04/29 08:12:21;;;;;;;;;9.75;8.25;;;;;17.66;94.41;99035.44;5073136;27;45424;-63
2023/04/29 08:14:46;;;;;;;;;13.50;12.50;;;;;17.69;93.39;99035.22;5073110;27;45469;-63
2023/04/29 08:17:11;;;;;;;;;9.25;9.25;;;;;17.70;94.16;99027.13;5072580;27;46261;-63
2023/04/29 08:19:37;;;;;;;;;12.25;10.00;;;;;17.79;94.13;99030.94;5073644;27;45365;-63
2023/04/29 08:22:03;;;;;;;;;12.00;10.25;;;;;17.86;93.21;99037.56;5073124;28;45915;-63
2023/04/29 08:24:29;;;;;;;;;12.50;11.00;;;;;17.92;93.34;99030.94;5072868;27;45373;-64
2023/04/29 08:26:54;;;;;;;;;10.75;9.75;;;;;18.03;93.85;99033.69;5072788;28;46435;-64
2023/04/29 08:29:20;;;;;;;;;9.00;9.00;;;;;18.16;93.10;99029.16;5073535;27;45497;-64
2023/04/29 08:31:45;;;;;;;;;10.00;10.00;;;;;18.36;93.37;99031.22;5072522;28;45547;-64
2023/04/29 08:34:11;;;;;;;;;14.50;13.25;;;;;18.59;93.58;99020.72;5072957;27;45402;-64
2023/04/29 08:36:37;;;;;;;;;15.75;14.75;;;;;18.83;93.58;99018.84;5072716;28;46240;-64
2023/04/29 08:39:03;;;;;;;;;19.00;13.60;;;;;19.07;92.97;99005.47;5072763;27;45356;-64
2023/04/29 08:41:31;;;;;;;;;16.00;14.50;;;;;19.24;89.20;99006.84;5072977;28;45712;-64
2023/04/29 08:43:58;;;;;;;;;18.75;17.00;;;;;19.33;88.56;99006.97;5073389;28;45518;-64
2023/04/29 08:46:25;;;;;;;;;19.25;18.00;;;;;19.45;88.31;98999.81;5071887;28;46558;-64
2023/04/29 08:48:51;;;;;;;;;18.50;17.75;;;;;19.59;87.73;98998.78;5073163;28;45490;-64
2023/04/29 08:51:17;;;;;;;;;18.25;16.25;;;;;19.74;87.33;99008.25;5072447;28;45478;-64
2023/04/29 08:53:42;;;;;;;;;15.75;15.75;;;;;19.87;86.14;99014.31;5072839;27;45416;-63
2023/04/29 08:56:12;;;;;;;;;18.25;16.50;;;;;19.93;85.49;99005.81;5071997;28;45694;-63
2023/04/29 08:58:39;;;;;;;;;18.20;16.80;;;;;19.96;84.55;99005.53;5072824;28;45395;-63
2023/04/29 09:01:08;;;;;;;;;21.00;17.75;;;;;19.99;85.12;99002.63;5072174;28;45450;-63
2023/04/29 09:03:43;;;;;;;;;19.00;17.25;;;;;20.03;83.96;99006.75;5072793;27;45443;-63
2023/04/29 09:06:09;;;;;;;;;20.75;17.25;;;;;20.11;83.83;99006.97;5072441;27;46795;-63
2023/04/29 09:08:35;;;;;;;;;12.80;11.80;;;;;20.24;83.95;98996.16;5076296;27;45383;-63
2023/04/29 09:11:02;;;;;;;;;20.50;18.00;;;;;20.35;82.73;99004.16;5071738;28;45440;-64
2023/04/29 09:13:31;;;;;;;;;17.00;15.00;;;;;20.51;83.44;99001.94;5090931;27;45345;-63
2023/04/29 09:15:57;;;;;;;;;15.00;13.80;;;;;20.65;82.20;99006.13;5074977;27;45870;-64
2023/04/29 09:18:48;;;;;;;;;13.25;13.25;;;;;20.81;81.12;98995.00;5073759;28;45427;-64
2023/04/29 09:21:24;;;;;;;;;12.50;12.25;;;;;20.84;79.97;98994.75;5075250;28;45411;-65
2023/04/29 09:24:01;;;;;;;;;10.50;9.75;;;;;20.90;80.18;99010.31;5076361;28;45452;-64
2023/04/29 09:26:32;;;;;;;;;12.25;11.25;;;;;20.95;79.97;99013.44;5073998;28;47109;-64
2023/04/29 09:29:17;;;;;;;;;13.20;11.00;;;;;20.94;79.88;99027.84;5075692;27;45391;-65
2023/04/29 09:31:42;;;;;;;;;12.20;10.00;;;;;20.88;80.42;99033.72;5074997;27;45498;-65
2023/04/29 09:34:10;;;;;;;;;14.50;13.25;;;;;20.84;80.42;99029.56;5075739;28;45436;-64
2023/04/29 09:36:37;;;;;;;;;14.00;13.00;;;;;20.84;79.02;99034.94;5075339;28;46211;-65
2023/04/29 09:39:04;;;;;;;;;12.40;10.40;;;;;20.76;79.49;99040.94;5075660;27;45549;-64
2023/04/29 09:41:30;;;;;;;;;14.50;13.75;;;;;20.66;79.78;99041.81;5075159;28;45477;-65
2023/04/29 09:44:06;;;;;;;;;13.75;13.75;;;;;20.59;78.91;99041.50;5075655;27;45549;-64
2023/04/29 09:46:32;;;;;;;;;12.60;11.40;;;;;20.45;80.22;99045.28;5067719;28;45490;-64
2023/04/29 09:48:58;;;;;;;;;10.60;10.60;;;;;20.36;80.20;99048.72;5073435;28;45459;-65
2023/04/29 09:51:24;;;;;;;;;10.50;10.50;;;;;20.30;80.33;99051.00;5074939;27;45415;-65
2023/04/29 09:53:49;;;;;;;;;5.50;4.75;;;;;20.22;79.85;99048.97;5075799;27;45562;-65
2023/04/29 09:56:15;;;;;;;;;10.50;9.75;;;;;20.08;79.97;99057.25;5074710;27;46699;-64
2023/04/29 09:58:41;;;;;;;;;9.00;9.00;;;;;19.93;80.45;99053.13;5074936;27;45369;-65
2023/04/29 10:01:08;;;;;;;;;11.40;10.00;;;;;19.79;81.43;99054.19;5074588;27;45491;-65
2023/04/29 10:03:35;;;;;;;;;11.40;10.60;;;;;19.69;82.72;99054.09;5073622;28;45569;-64
2023/04/29 10:06:03;;;;;;;;;10.40;9.80;;;;;19.68;82.88;99051.53;5074401;27;46558;-64
2023/04/29 10:08:30;;;;;;;;;9.40;9.40;;;;;19.70;82.43;99055.78;5073838;28;45387;-63
2023/04/29 10:11:00;;;;;;;;;10.00;10.00;;;;;19.74;82.91;99061.75;5074721;27;45382;-64
2023/04/29 10:13:27;;;;;;;;;10.00;9.20;;;;;19.75;82.53;99053.63;5072329;28;45545;-65
2023/04/29 10:16:10;;;;;;;;;10.60;10.00;;;;;19.78;82.19;99053.34;5074799;27;45511;-65
2023/04/29 10:18:39;;;;;;;;;9.40;8.80;;;;;19.80;82.05;99050.56;5071707;28;45431;-65
2023/04/29 10:21:08;;;;;;;;;6.40;6.40;;;;;19.76;80.57;99054.47;5074923;27;45420;-65
2023/04/29 10:23:35;;;;;;;;;7.00;7.00;;;;;19.72;81.75;99053.00;5075032;28;45462;-64
2023/04/29 10:26:05;;;;;;;;;7.80;7.00;;;;;19.73;81.49;99058.22;5068367;28;47697;-64
2023/04/29 10:28:31;;;;;;;;;7.60;6.60;;;;;19.78;81.61;99049.81;5075279;27;45446;-65
2023/04/29 10:31:01;;;;;;;;;11.20;10.00;;;;;19.80;80.75;99046.06;5074002;27;45405;-65
2023/04/29 10:33:30;;;;;;;;;8.00;8.00;;;;;19.77;80.72;99042.78;5073343;28;45455;-65
2023/04/29 10:35:55;;;;;;;;;11.20;9.00;;;;;19.86;82.63;99047.41;5074165;27;45665;-65
2023/04/29 10:38:39;;;;;;;;;13.50;13.50;;;;;20.03;82.14;99041.56;5074414;28;45280;-64
2023/04/29 10:41:09;;;;;;;;;6.40;6.40;;;;;20.14;81.77;99040.69;5074186;27;45446;-65
2023/04/29 10:43:35;;;;;;;;;7.80;7.80;;;;;20.29;80.82;99038.59;5074616;28;45440;-65
2023/04/29 10:46:17;;;;;;;;;9.00;8.00;;;;;20.43;81.35;99033.03;5073817;28;46206;-65
2023/04/29 10:48:43;;;;;;;;;6.20;6.00;;;;;20.55;80.58;99037.38;5074999;27;45314;-65
2023/04/29 10:51:09;;;;;;;;;5.60;5.60;;;;;20.58;77.82;99034.44;5074705;28;45464;-65
2023/04/29 10:53:34;;;;;;;;;6.00;5.25;;;;;20.54;78.20;99031.16;5075269;27;45538;-65
2023/04/29 10:56:07;;;;;;;;;8.00;7.00;;;;;20.55;77.31;99029.31;5074113;27;45557;-65
2023/04/29 10:58:38;;;;;;;;;5.60;5.60;;;;;20.57;78.08;99027.38;5074741;27;45395;-65
2023/04/29 11:01:04;;;;;;;;;4.40;4.40;;;;;20.62;76.31;99026.97;5074083;27;45437;-65
2023/04/29 11:03:45;;;;;;;;;3.40;3.40;;;;;20.57;74.42;99034.56;5074995;27;45333;-65
2023/04/29 11:06:10;;;;;;;;;3.60;3.60;;;;;20.51;71.49;99022.50;5074121;27;46741;-65
2023/04/29 11:08:39;;;;;;;;;2.75;2.75;;;;;20.49;72.81;99019.97;5074619;27;45375;-65
2023/04/29 11:11:07;;;;;;;;;3.00;3.00;;;;;20.50;72.72;99021.66;5074211;28;45468;-65
2023/04/29 11:13:38;;;;;;;;;4.00;4.00;;;;;20.56;72.86;99017.63;5074486;27;45489;-66
2023/04/29 11:16:04;;;;;;;;;2.20;2.20;;;;;20.65;73.73;99007.97;5073717;27;46542;-65
2023/04/29 11:18:30;;;;;;;;;4.80;4.80;;;;;20.79;74.02;98999.63;5071949;27;45431;-65
2023/04/29 11:21:04;;;;;;;;;4.25;4.25;;;;;21.10;74.58;98997.91;5074391;27;45351;-65
2023/04/29 11:23:31;;;;;;;;;1.00;1.00;;;;;21.44;74.38;98990.53;5074341;27;45438;-65
2023/04/29 11:25:56;;;;;;;;;7.20;7.20;;;;;21.79;74.02;98992.78;5070483;28;45928;-65